createdAt,value
2022-08-20T00:03:37.355Z,5.57
2022-08-20T00:06:12.401Z,5.60
2022-08-20T00:08:40.081Z,5.78
2022-08-20T00:11:11.450Z,5.38
2022-08-20T00:13:51.216Z,5.88
2022-08-20T00:16:20.615Z,5.68
2022-08-20T00:18:49.384Z,5.13
2022-08-20T00:21:19.355Z,4.88
2022-08-20T00:23:49.452Z,5.68
2022-08-20T00:26:17.626Z,5.57
2022-08-20T00:28:44.665Z,6.55
2022-08-20T00:31:14.127Z,6.03
2022-08-20T00:33:41.366Z,5.28
2022-08-20T00:36:10.965Z,5.90
2022-08-20T00:38:43.475Z,5.80
2022-08-20T00:41:22.893Z,5.95
2022-08-20T00:43:53.819Z,7.20
2022-08-20T00:46:28.838Z,6.85
2022-08-20T00:49:01.787Z,6.03
2022-08-20T00:51:41.557Z,5.85
2022-08-20T00:54:23.911Z,6.05
2022-08-20T00:56:57.475Z,5.90
2022-08-20T00:59:28.196Z,5.75
2022-08-20T01:01:56.687Z,5.72
2022-08-20T01:04:29.496Z,5.95
2022-08-20T01:06:56.659Z,5.43
2022-08-20T01:09:33.352Z,6.18
2022-08-20T01:12:13.882Z,5.93
2022-08-20T01:14:45.940Z,6.00
2022-08-20T01:17:18.909Z,7.90
2022-08-20T01:19:54.475Z,6.05
2022-08-20T01:22:51.494Z,6.37
2022-08-20T01:25:28.495Z,5.60
2022-08-20T01:27:56.557Z,5.55
2022-08-20T01:30:27.593Z,5.90
2022-08-20T01:32:54.757Z,7.18
2022-08-20T01:35:23.826Z,6.68
2022-08-20T01:37:50.895Z,6.22
2022-08-20T01:40:33.094Z,6.25
2022-08-20T01:43:00.015Z,6.82
2022-08-20T01:45:30.854Z,6.03
2022-08-20T01:47:58.857Z,5.40
2022-08-20T01:50:29.691Z,5.47
2022-08-20T01:53:15.054Z,5.82
2022-08-20T01:55:42.147Z,6.03
2022-08-20T01:58:09.444Z,6.35
2022-08-20T02:00:36.721Z,7.20
2022-08-20T02:03:03.965Z,5.93
2022-08-20T02:05:33.397Z,7.03
2022-08-20T02:08:00.755Z,6.72
2022-08-20T02:10:31.834Z,6.53
2022-08-20T02:13:00.611Z,6.18
2022-08-20T02:15:34.681Z,7.15
2022-08-20T02:18:10.457Z,5.63
2022-08-20T02:20:37.834Z,7.07
2022-08-20T02:23:06.154Z,6.30
2022-08-20T02:25:35.964Z,5.30
2022-08-20T02:28:07.703Z,6.85
2022-08-20T02:30:40.445Z,7.40
2022-08-20T02:33:12.566Z,5.68
2022-08-20T02:35:42.891Z,5.72
2022-08-20T02:38:11.253Z,6.38
2022-08-20T02:40:39.024Z,6.13
2022-08-20T02:43:06.262Z,6.53
2022-08-20T02:45:43.745Z,5.95
2022-08-20T02:48:21.001Z,5.63
2022-08-20T02:50:50.941Z,6.00
2022-08-20T02:53:18.324Z,6.25
2022-08-20T02:55:45.612Z,6.22
2022-08-20T02:58:12.695Z,6.18
2022-08-20T03:00:40.645Z,5.90
2022-08-20T03:03:12.067Z,6.53
2022-08-20T03:05:40.946Z,7.65
2022-08-20T03:08:10.288Z,7.10
2022-08-20T03:10:39.458Z,6.22
2022-08-20T03:13:11.403Z,6.93
2022-08-20T03:15:41.665Z,6.35
2022-08-20T03:18:08.960Z,6.32
2022-08-20T03:20:36.142Z,5.82
2022-08-20T03:23:05.142Z,7.05
2022-08-20T03:25:33.040Z,6.68
2022-08-20T03:28:00.634Z,6.50
2022-08-20T03:30:28.944Z,7.18
2022-08-20T03:32:56.623Z,6.63
2022-08-20T03:35:26.462Z,6.57
2022-08-20T03:37:53.754Z,6.20
2022-08-20T03:40:28.451Z,6.78
2022-08-20T03:42:55.875Z,6.50
2022-08-20T03:45:23.781Z,7.70
2022-08-20T03:47:53.683Z,6.65
2022-08-20T03:50:28.617Z,6.65
2022-08-20T03:52:56.502Z,6.97
2022-08-20T03:55:24.708Z,7.00
2022-08-20T03:57:56.478Z,6.93
2022-08-20T04:00:49.267Z,6.32
2022-08-20T04:03:17.560Z,8.93
2022-08-20T04:05:44.916Z,7.85
2022-08-20T04:08:16.454Z,6.38
2022-08-20T04:10:45.594Z,7.32
2022-08-20T04:13:13.587Z,7.05
2022-08-20T04:15:41.894Z,7.25
2022-08-20T04:18:10.447Z,7.68
2022-08-20T04:20:39.667Z,7.82
2022-08-20T04:23:08.219Z,7.40
2022-08-20T04:25:37.110Z,7.13
2022-08-20T04:28:27.180Z,7.65
2022-08-20T04:30:59.716Z,7.35
2022-08-20T04:33:35.441Z,6.47
2022-08-20T04:36:06.088Z,7.55
2022-08-20T04:38:47.892Z,7.78
2022-08-20T04:41:22.854Z,6.95
2022-08-20T04:43:50.430Z,7.43
2022-08-20T04:46:17.327Z,7.10
2022-08-20T04:48:49.065Z,7.38
2022-08-20T04:51:18.632Z,6.90
2022-08-20T04:53:53.297Z,7.28
2022-08-20T04:56:26.715Z,7.15
2022-08-20T04:58:59.187Z,7.63
2022-08-20T05:01:26.696Z,6.97
2022-08-20T05:03:55.366Z,7.80
2022-08-20T05:06:25.983Z,8.02
2022-08-20T05:08:54.342Z,7.35
2022-08-20T05:11:33.018Z,7.43
2022-08-20T05:14:09.140Z,7.85
2022-08-20T05:16:38.547Z,7.60
2022-08-20T05:19:08.263Z,7.30
2022-08-20T05:21:35.313Z,7.97
2022-08-20T05:24:03.060Z,8.00
2022-08-20T05:26:29.973Z,7.50
2022-08-20T05:28:58.646Z,6.65
2022-08-20T05:31:32.981Z,7.30
2022-08-20T05:34:10.378Z,7.38
2022-08-20T05:36:50.135Z,20.77
2022-08-20T05:39:19.411Z,15.77
2022-08-20T05:41:46.568Z,10.73
2022-08-20T05:44:14.839Z,8.43
2022-08-20T05:46:43.748Z,8.30
2022-08-20T05:49:13.798Z,7.70
2022-08-20T05:51:41.105Z,6.80
2022-08-20T05:54:08.286Z,6.55
2022-08-20T05:56:36.170Z,6.70
2022-08-20T05:59:05.605Z,7.88
2022-08-20T06:01:34.603Z,7.40
2022-08-20T06:04:20.156Z,6.90
2022-08-20T06:06:47.648Z,6.82
2022-08-20T06:09:30.921Z,6.25
2022-08-20T06:12:01.053Z,5.72
2022-08-20T06:14:27.959Z,6.10
2022-08-20T06:16:57.424Z,5.35
2022-08-20T06:19:26.858Z,6.20
2022-08-20T06:21:54.322Z,5.88
2022-08-20T06:24:25.053Z,6.28
2022-08-20T06:27:00.434Z,6.45
2022-08-20T06:29:28.492Z,7.13
2022-08-20T06:31:56.481Z,6.40
2022-08-20T06:34:30.890Z,6.63
2022-08-20T06:37:00.957Z,6.03
2022-08-20T06:39:29.795Z,6.60
2022-08-20T06:41:58.849Z,6.85
2022-08-20T06:44:26.245Z,6.10
2022-08-20T06:46:53.098Z,6.63
2022-08-20T06:49:20.079Z,8.70
2022-08-20T06:51:50.025Z,9.07
2022-08-20T06:54:19.085Z,7.22
2022-08-20T06:56:46.239Z,6.85
2022-08-20T06:59:13.151Z,7.65
2022-08-20T07:01:40.326Z,6.88
2022-08-20T07:04:08.662Z,7.50
2022-08-20T07:06:35.520Z,6.70
2022-08-20T07:09:02.765Z,6.90
2022-08-20T07:11:29.750Z,6.85
2022-08-20T07:13:58.923Z,7.53
2022-08-20T07:16:26.452Z,7.30
2022-08-20T07:18:53.552Z,7.40
2022-08-20T07:21:20.478Z,6.90
2022-08-20T07:23:49.675Z,6.22
2022-08-20T07:26:17.378Z,8.00
2022-08-20T07:28:44.378Z,7.65
2022-08-20T07:31:31.502Z,8.68
2022-08-20T07:34:00.065Z,7.32
2022-08-20T07:36:27.356Z,9.05
2022-08-20T07:38:55.114Z,7.95
2022-08-20T07:41:24.221Z,7.05
2022-08-20T07:43:51.477Z,7.80
2022-08-20T07:46:21.765Z,7.53
2022-08-20T07:48:50.661Z,7.47
2022-08-20T07:51:23.363Z,7.78
2022-08-20T07:53:51.954Z,6.68
2022-08-20T07:56:21.828Z,7.40
2022-08-20T07:58:52.460Z,7.22
2022-08-20T08:01:21.909Z,7.90
2022-08-20T08:03:49.807Z,8.40
2022-08-20T08:06:29.939Z,8.45
2022-08-20T08:09:11.186Z,8.15
2022-08-20T08:11:44.976Z,7.75
2022-08-20T08:14:14.777Z,7.75
2022-08-20T08:16:45.787Z,8.93
2022-08-20T08:19:17.743Z,9.40
2022-08-20T08:21:44.870Z,8.88
2022-08-20T08:24:16.689Z,8.90
2022-08-20T08:26:50.287Z,9.25
2022-08-20T08:29:17.582Z,14.70
2022-08-20T08:31:44.838Z,10.15
2022-08-20T08:34:12.052Z,13.43
2022-08-20T08:36:39.776Z,8.82
2022-08-20T08:39:06.850Z,9.25
2022-08-20T08:41:52.991Z,8.98
2022-08-20T08:44:25.062Z,8.87
2022-08-20T08:46:57.222Z,10.70
2022-08-20T08:49:37.176Z,10.13
2022-08-20T08:52:14.899Z,8.30
2022-08-20T08:54:49.103Z,9.20
2022-08-20T08:57:16.713Z,8.82
2022-08-20T08:59:52.071Z,10.23
2022-08-20T09:02:32.131Z,10.02
2022-08-20T09:05:02.194Z,9.93
2022-08-20T09:07:33.434Z,11.50
2022-08-20T09:10:02.482Z,11.10
2022-08-20T09:12:29.382Z,10.15
2022-08-20T09:14:56.375Z,10.93
2022-08-20T09:17:23.764Z,10.23
2022-08-20T09:19:52.595Z,10.15
2022-08-20T09:22:22.150Z,11.30
2022-08-20T09:24:50.575Z,11.50
2022-08-20T09:27:17.912Z,11.13
2022-08-20T09:29:44.892Z,12.23
2022-08-20T09:32:22.693Z,12.07
2022-08-20T09:34:56.129Z,12.40
2022-08-20T09:37:25.294Z,12.18
2022-08-20T09:39:52.284Z,10.13
2022-08-20T09:42:28.435Z,10.48
2022-08-20T09:44:55.996Z,10.65
2022-08-20T09:47:23.148Z,9.60
2022-08-20T09:49:50.452Z,9.85
2022-08-20T09:52:26.597Z,11.10
2022-08-20T09:54:58.318Z,11.50
2022-08-20T09:57:26.708Z,12.30
2022-08-20T10:00:05.638Z,12.40
2022-08-20T10:02:32.628Z,19.30
2022-08-20T10:04:59.518Z,13.70
2022-08-20T10:07:26.569Z,12.75
2022-08-20T10:09:53.438Z,12.20
2022-08-20T10:12:20.350Z,10.23
2022-08-20T10:14:47.258Z,10.00
2022-08-20T10:17:14.368Z,10.45
2022-08-20T10:19:41.562Z,10.90
2022-08-20T10:22:11.661Z,11.00
2022-08-20T10:24:38.560Z,11.00
2022-08-20T10:27:06.077Z,11.20
2022-08-20T10:29:34.029Z,10.25
2022-08-20T10:32:13.169Z,10.45
2022-08-20T10:34:45.228Z,10.40
2022-08-20T10:37:17.598Z,10.00
2022-08-20T10:39:45.674Z,10.25
2022-08-20T10:42:12.583Z,11.65
2022-08-20T10:44:40.230Z,10.88
2022-08-20T10:47:24.197Z,11.52
2022-08-20T10:49:53.405Z,10.70
2022-08-20T10:52:21.654Z,10.35
2022-08-20T10:54:48.532Z,9.63
2022-08-20T10:57:29.631Z,9.57
2022-08-20T10:59:58.406Z,9.05
2022-08-20T11:02:27.017Z,9.10
2022-08-20T11:04:54.881Z,9.70
2022-08-20T11:08:00.233Z,8.52
2022-08-20T11:10:14.121Z,8.98
2022-08-20T11:12:42.021Z,8.57
2022-08-20T11:15:12.502Z,8.88
2022-08-20T11:17:42.511Z,8.32
2022-08-20T11:20:12.300Z,8.32
2022-08-20T11:22:39.171Z,9.05
2022-08-20T11:25:07.411Z,8.95
2022-08-20T11:27:38.541Z,8.18
2022-08-20T11:30:08.042Z,8.90
2022-08-20T11:32:34.911Z,8.10
2022-08-20T11:35:13.752Z,8.40
2022-08-20T11:37:49.051Z,8.52
2022-08-20T11:40:16.002Z,7.25
2022-08-20T11:43:04.361Z,7.57
2022-08-20T11:45:29.984Z,8.43
2022-08-20T11:48:04.652Z,8.90
2022-08-20T11:50:31.652Z,7.80
2022-08-20T11:52:58.721Z,7.97
2022-08-20T11:55:28.520Z,7.68
2022-08-20T11:58:00.123Z,6.95
2022-08-20T12:00:32.688Z,7.80
2022-08-20T12:03:09.055Z,7.75
2022-08-20T12:05:38.162Z,11.25
2022-08-20T12:08:05.959Z,8.98
2022-08-20T12:10:33.277Z,8.35
2022-08-20T12:13:00.358Z,9.40
2022-08-20T12:15:29.774Z,9.25
2022-08-20T12:17:56.877Z,9.40
2022-08-20T12:20:24.488Z,8.90
2022-08-20T12:22:51.427Z,9.05
2022-08-20T12:25:18.554Z,8.68
2022-08-20T12:27:46.147Z,8.23
2022-08-20T12:30:20.112Z,9.43
2022-08-20T12:32:47.921Z,8.50
2022-08-20T12:35:17.063Z,8.00
2022-08-20T12:37:45.531Z,8.35
2022-08-20T12:40:30.619Z,8.30
2022-08-20T12:43:01.370Z,8.03
2022-08-20T12:45:29.053Z,8.77
2022-08-20T12:48:06.160Z,7.70
2022-08-20T12:50:34.961Z,8.00
2022-08-20T12:53:02.713Z,9.15
2022-08-20T12:55:30.781Z,8.05
2022-08-20T12:58:01.092Z,7.32
2022-08-20T13:00:37.473Z,7.70
2022-08-20T13:03:07.443Z,9.73
2022-08-20T13:05:35.954Z,9.43
2022-08-20T13:08:08.071Z,7.32
2022-08-20T13:10:38.142Z,8.35
2022-08-20T13:13:05.071Z,7.95
2022-08-20T13:15:32.842Z,8.00
2022-08-20T13:18:02.681Z,9.07
2022-08-20T13:20:31.701Z,7.50
2022-08-20T13:23:02.018Z,7.20
2022-08-20T13:25:28.991Z,7.78
2022-08-20T13:27:58.612Z,7.68
2022-08-20T13:30:26.772Z,8.18
2022-08-20T13:32:54.373Z,6.88
2022-08-20T13:35:21.863Z,7.38
2022-08-20T13:37:50.003Z,7.25
2022-08-20T13:40:17.503Z,7.78
2022-08-20T13:42:44.532Z,8.38
2022-08-20T13:45:12.223Z,8.23
2022-08-20T13:47:41.337Z,7.63
2022-08-20T13:50:16.450Z,7.88
2022-08-20T13:52:44.041Z,8.48
2022-08-20T13:55:14.424Z,9.35
2022-08-20T13:57:42.113Z,10.50
2022-08-20T14:00:13.791Z,10.23
2022-08-20T14:02:41.851Z,9.15
2022-08-20T14:05:09.142Z,11.05
2022-08-20T14:07:37.821Z,10.27
2022-08-20T14:10:09.553Z,12.85
2022-08-20T14:12:36.602Z,10.48
2022-08-20T14:15:04.334Z,12.15
2022-08-20T14:17:41.293Z,9.18
2022-08-20T14:20:10.083Z,9.38
2022-08-20T14:22:37.902Z,9.90
2022-08-20T14:25:11.182Z,10.80
2022-08-20T14:27:38.472Z,11.23
2022-08-20T14:30:08.692Z,11.02
2022-08-20T14:32:54.888Z,17.70
2022-08-20T14:35:22.877Z,12.05
2022-08-20T14:37:53.831Z,11.32
2022-08-20T14:40:22.391Z,10.80
2022-08-20T14:42:51.711Z,11.13
2022-08-20T14:45:19.885Z,12.05
2022-08-20T14:47:53.382Z,11.30
2022-08-20T14:50:25.911Z,11.43
2022-08-20T14:52:53.949Z,12.60
2022-08-20T14:55:23.891Z,11.38
2022-08-20T14:57:51.122Z,10.90
2022-08-20T15:00:21.792Z,9.93
2022-08-20T15:02:48.771Z,9.95
2022-08-20T15:05:16.114Z,11.50
2022-08-20T15:07:48.211Z,11.02
2022-08-20T15:10:19.554Z,11.57
2022-08-20T15:12:46.631Z,13.35
2022-08-20T15:15:15.903Z,10.45
2022-08-20T15:17:45.744Z,12.95
2022-08-20T15:20:20.437Z,10.50
2022-08-20T15:22:48.781Z,11.48
2022-08-20T15:25:18.172Z,11.27
2022-08-20T15:27:45.631Z,10.65
2022-08-20T15:30:16.293Z,10.02
2022-08-20T15:32:43.461Z,11.02
2022-08-20T15:35:11.576Z,10.57
2022-08-20T15:37:43.853Z,10.45
2022-08-20T15:40:13.714Z,8.85
2022-08-20T15:42:43.711Z,10.27
2022-08-20T15:45:21.926Z,11.43
2022-08-20T15:48:15.552Z,10.18
2022-08-20T15:50:48.487Z,10.10
2022-08-20T15:53:27.338Z,10.48
2022-08-20T15:56:05.171Z,12.00
2022-08-20T15:59:16.881Z,18.83
2022-08-20T16:02:25.564Z,10.75
2022-08-20T16:05:10.931Z,11.70
2022-08-20T16:07:58.751Z,12.77
2022-08-20T16:10:32.951Z,12.02
2022-08-20T16:13:02.854Z,12.07
2022-08-20T16:15:33.121Z,12.65
2022-08-20T16:18:16.401Z,12.02
2022-08-20T16:20:47.989Z,11.85
2022-08-20T16:23:20.782Z,10.77
2022-08-20T16:26:12.171Z,11.23
2022-08-20T16:28:57.442Z,10.45
2022-08-20T16:31:28.871Z,9.82
2022-08-20T16:34:33.704Z,11.80
2022-08-20T16:37:06.571Z,14.40
2022-08-20T16:40:00.171Z,11.48
2022-08-20T16:42:36.580Z,16.45
2022-08-20T16:45:07.631Z,11.32
2022-08-20T16:47:38.604Z,9.68
2022-08-20T16:50:26.040Z,10.77
2022-08-20T16:52:53.449Z,8.82
2022-08-20T16:55:23.863Z,19.70
2022-08-20T16:57:51.891Z,18.00
2022-08-20T17:00:26.954Z,19.70
2022-08-20T17:03:02.321Z,19.92
2022-08-20T17:05:45.201Z,15.63
2022-08-20T17:08:29.034Z,12.02
2022-08-20T17:11:07.450Z,12.00
2022-08-20T17:13:37.293Z,10.50
2022-08-20T17:16:04.137Z,13.02
2022-08-20T17:18:35.763Z,11.13
2022-08-20T17:21:14.424Z,10.95
2022-08-20T17:23:55.928Z,11.90
2022-08-20T17:26:45.937Z,10.63
2022-08-20T17:29:18.838Z,10.73
2022-08-20T17:31:52.189Z,11.30
2022-08-20T17:34:25.870Z,12.57
2022-08-20T17:36:58.823Z,11.48
2022-08-20T17:39:29.743Z,13.80
2022-08-20T17:42:10.963Z,10.85
2022-08-20T17:44:43.104Z,11.95
2022-08-20T17:47:16.296Z,11.30
2022-08-20T17:50:02.057Z,10.65
2022-08-20T17:52:38.652Z,9.70
2022-08-20T17:55:07.993Z,11.30
2022-08-20T17:57:38.522Z,11.93
2022-08-20T18:00:09.793Z,12.05
2022-08-20T18:02:37.274Z,11.88
2022-08-20T18:05:18.923Z,11.70
2022-08-20T18:08:06.872Z,11.25
2022-08-20T18:10:42.163Z,11.57
2022-08-20T18:13:20.245Z,11.95
2022-08-20T18:15:57.182Z,11.57
2022-08-20T18:18:27.143Z,11.75
2022-08-20T18:21:14.545Z,10.88
2022-08-20T18:23:50.183Z,10.98
2022-08-20T18:26:27.441Z,14.00
2022-08-20T18:29:11.188Z,12.70
2022-08-20T18:31:52.001Z,11.98
2022-08-20T18:34:38.550Z,13.25
2022-08-20T18:37:07.332Z,11.73
2022-08-20T18:39:36.560Z,11.88
2022-08-20T18:42:17.901Z,12.35
2022-08-20T18:44:48.321Z,11.90
2022-08-20T18:47:34.521Z,11.05
2022-08-20T18:50:16.216Z,10.38
2022-08-20T18:52:53.405Z,9.80
2022-08-20T18:55:32.074Z,9.95
2022-08-20T18:58:32.692Z,10.35
2022-08-20T19:01:02.110Z,10.15
2022-08-20T19:03:41.863Z,11.38
2022-08-20T19:06:32.899Z,9.82
2022-08-20T19:09:06.330Z,10.25
2022-08-20T19:12:03.141Z,10.70
2022-08-20T19:14:43.551Z,10.98
2022-08-20T19:17:34.452Z,9.90
2022-08-20T19:20:05.469Z,10.18
2022-08-20T19:22:34.870Z,9.90
2022-08-20T19:25:01.953Z,12.93
2022-08-20T19:27:29.735Z,10.77
2022-08-20T19:29:58.005Z,10.82
2022-08-20T19:32:28.321Z,9.93
2022-08-20T19:35:02.213Z,10.95
2022-08-20T19:37:38.578Z,13.25
2022-08-20T19:40:32.281Z,12.70
2022-08-20T19:43:02.461Z,13.73
2022-08-20T19:45:39.551Z,10.30
2022-08-20T19:48:54.413Z,12.43
2022-08-20T19:51:44.142Z,20.65
2022-08-20T19:54:23.636Z,12.00
2022-08-20T19:56:51.391Z,13.00
2022-08-20T19:59:21.302Z,9.40
2022-08-20T20:02:03.332Z,9.13
2022-08-20T20:04:55.789Z,8.65
2022-08-20T20:07:36.432Z,8.48
2022-08-20T20:10:06.721Z,9.35
2022-08-20T20:12:35.143Z,8.60
2022-08-20T20:15:03.211Z,8.57
2022-08-20T20:17:35.641Z,10.05
2022-08-20T20:20:16.052Z,9.15
2022-08-20T20:22:53.161Z,9.52
2022-08-20T20:25:31.230Z,9.90
2022-08-20T20:28:08.624Z,9.48
2022-08-20T20:30:37.411Z,8.95
2022-08-20T20:33:14.093Z,9.55
2022-08-20T20:35:41.312Z,8.68
2022-08-20T20:38:11.992Z,9.32
2022-08-20T20:40:52.192Z,8.60
2022-08-20T20:43:41.580Z,9.68
2022-08-20T20:46:22.721Z,8.88
2022-08-20T20:48:59.172Z,9.75
2022-08-20T20:53:59.832Z,9.68
2022-08-20T20:56:31.855Z,9.30
2022-08-20T20:59:05.309Z,9.80
2022-08-20T21:01:49.327Z,9.20
2022-08-20T21:04:22.670Z,9.45
2022-08-20T21:06:55.382Z,9.13
2022-08-20T21:09:23.912Z,9.90
2022-08-20T21:11:51.021Z,9.50
2022-08-20T21:14:18.422Z,9.82
2022-08-20T21:16:45.741Z,10.00
2022-08-20T21:19:13.247Z,9.55
2022-08-20T21:21:41.188Z,9.57
2022-08-20T21:24:09.139Z,9.50
2022-08-20T21:26:37.285Z,8.40
2022-08-20T21:29:09.807Z,8.80
2022-08-20T21:31:43.748Z,8.85
2022-08-20T21:34:13.388Z,8.57
2022-08-20T21:36:41.078Z,9.52
2022-08-20T21:39:08.438Z,9.23
2022-08-20T21:41:36.994Z,9.30
2022-08-20T21:44:26.774Z,9.07
2022-08-20T21:46:57.427Z,10.52
2022-08-20T21:49:26.236Z,10.55
2022-08-20T21:51:54.088Z,10.07
2022-08-20T21:54:21.757Z,10.52
2022-08-20T21:56:59.260Z,9.75
2022-08-20T21:59:26.448Z,9.88
2022-08-20T22:01:53.621Z,10.23
2022-08-20T22:04:21.251Z,10.25
2022-08-20T22:06:49.416Z,9.90
2022-08-20T22:09:16.648Z,10.05
2022-08-20T22:11:43.706Z,9.93
2022-08-20T22:14:12.604Z,13.25
2022-08-20T22:16:42.302Z,11.65
2022-08-20T22:19:15.961Z,9.63
2022-08-20T22:21:43.460Z,10.57
2022-08-20T22:24:13.321Z,11.57
2022-08-20T22:26:41.605Z,10.88
2022-08-20T22:29:11.313Z,11.02
2022-08-20T22:31:41.585Z,10.65
2022-08-20T22:34:10.417Z,12.20
2022-08-20T22:36:37.658Z,14.80
2022-08-20T22:39:05.563Z,11.25
2022-08-20T22:41:32.587Z,9.95
2022-08-20T22:43:59.653Z,10.57
2022-08-20T22:46:30.585Z,9.90
2022-08-20T22:48:57.788Z,10.02
2022-08-20T22:51:30.387Z,10.38
2022-08-20T22:53:59.006Z,10.38
2022-08-20T22:56:27.107Z,11.00
2022-08-20T22:58:59.434Z,10.88
2022-08-20T23:01:27.717Z,11.18
2022-08-20T23:03:57.597Z,10.65
2022-08-20T23:06:26.307Z,11.15
2022-08-20T23:08:53.275Z,10.30
2022-08-20T23:11:20.440Z,11.07
2022-08-20T23:13:47.366Z,10.68
2022-08-20T23:16:14.407Z,10.30
2022-08-20T23:18:41.467Z,9.13
2022-08-20T23:21:08.406Z,10.35
2022-08-20T23:23:35.728Z,9.50
2022-08-20T23:26:02.907Z,9.35
2022-08-20T23:28:30.033Z,9.45
2022-08-20T23:30:57.125Z,9.68
2022-08-20T23:33:24.216Z,10.15
2022-08-20T23:35:51.206Z,10.38
2022-08-20T23:38:18.215Z,10.20
2022-08-20T23:40:45.319Z,10.02
2022-08-20T23:43:12.280Z,10.13
2022-08-20T23:45:40.352Z,10.68
2022-08-20T23:48:08.059Z,10.05
2022-08-20T23:50:36.125Z,10.00
2022-08-20T23:53:04.433Z,10.18
2022-08-20T23:55:31.695Z,9.88
2022-08-20T23:57:58.700Z,10.20
